createdAt,value
2023-08-27T00:01:05.352Z,17.6
2023-08-27T00:04:06.362Z,17.5
2023-08-27T00:07:07.334Z,17.5
2023-08-27T00:10:08.408Z,17.6
2023-08-27T00:13:09.431Z,17.5
2023-08-27T00:19:11.468Z,17.5
2023-08-27T00:22:12.444Z,17.5
2023-08-27T00:26:58.484Z,17.4
2023-08-27T00:28:14.554Z,17.4
2023-08-27T00:31:15.534Z,17.4
2023-08-27T00:34:16.553Z,17.3
2023-08-27T00:37:17.626Z,17.3
2023-08-27T00:40:18.643Z,17.2
2023-08-27T00:43:19.616Z,17.1
2023-08-27T00:46:20.703Z,17
2023-08-27T00:49:21.675Z,16.9
2023-08-27T00:52:22.678Z,16.8
2023-08-27T00:55:23.750Z,16.8
2023-08-27T00:57:08.777Z,16.7
2023-08-27T00:58:24.794Z,16.7
2023-08-27T01:07:27.826Z,16.6
2023-08-27T01:10:28.837Z,16.6
2023-08-27T01:13:29.873Z,16.5
2023-08-27T01:16:30.876Z,16.5
2023-08-27T01:19:31.910Z,16.5
2023-08-27T01:22:32.932Z,16.4
2023-08-27T01:25:33.942Z,16.3
2023-08-27T01:27:18.955Z,16.2
2023-08-27T01:28:34.991Z,16.2
2023-08-27T01:31:36.001Z,16.2
2023-08-27T01:34:37.034Z,16.1
2023-08-27T01:40:39.081Z,16
2023-08-27T01:43:40.089Z,15.9
2023-08-27T01:52:43.157Z,15.8
2023-08-27T01:55:44.172Z,15.7
2023-08-27T01:57:29.199Z,15.7
2023-08-27T01:58:45.221Z,15.7
2023-08-27T02:01:46.228Z,15.7
2023-08-27T02:07:48.290Z,15.6
2023-08-27T02:10:49.303Z,15.6
2023-08-27T02:13:50.321Z,15.6
2023-08-27T02:16:51.353Z,15.6
2023-08-27T02:19:52.362Z,15.6
2023-08-27T02:25:54.407Z,15.5
2023-08-27T02:27:39.422Z,15.4
2023-08-27T02:31:56.483Z,15.3
2023-08-27T02:34:57.509Z,15.3
2023-08-27T02:37:58.517Z,15.3
2023-08-27T02:44:00.562Z,15.3
2023-08-27T02:47:01.584Z,15.3
2023-08-27T02:50:02.606Z,15.3
2023-08-27T02:53:03.627Z,15.2
2023-08-27T02:56:04.644Z,15.2
2023-08-27T02:57:49.669Z,15.2
2023-08-27T03:02:06.708Z,15.2
2023-08-27T03:05:07.738Z,15.1
2023-08-27T03:20:12.844Z,15
2023-08-27T03:23:13.849Z,15
2023-08-27T03:26:14.875Z,14.9
2023-08-27T03:27:59.886Z,14.9
2023-08-27T03:32:16.953Z,14.9
2023-08-27T03:35:17.965Z,14.9
2023-08-27T03:38:18.986Z,14.9
2023-08-27T03:41:19.992Z,14.9
2023-08-27T03:47:22.047Z,14.9
2023-08-27T03:50:23.072Z,14.9
2023-08-27T03:53:24.087Z,14.8
2023-08-27T03:56:25.129Z,14.8
2023-08-27T03:58:10.118Z,14.8
2023-08-27T04:02:27.149Z,14.8
2023-08-27T04:05:28.184Z,14.8
2023-08-27T04:08:29.201Z,14.8
2023-08-27T04:11:30.219Z,14.8
2023-08-27T04:14:31.248Z,14.8
2023-08-27T04:17:32.261Z,14.8
2023-08-27T04:23:34.311Z,14.9
2023-08-27T04:26:35.340Z,14.8
2023-08-27T04:28:20.348Z,14.8
2023-08-27T04:29:36.351Z,14.8
2023-08-27T04:32:37.372Z,14.8
2023-08-27T04:35:38.399Z,14.9
2023-08-27T04:38:39.410Z,14.8
2023-08-27T04:41:40.450Z,14.9
2023-08-27T04:44:41.454Z,14.9
2023-08-27T04:50:43.509Z,14.9
2023-08-27T04:53:44.525Z,14.9
2023-08-27T04:56:45.544Z,15
2023-08-27T04:58:30.593Z,15
2023-08-27T04:59:46.572Z,15
2023-08-27T05:02:47.581Z,15
2023-08-27T05:08:49.646Z,15.1
2023-08-27T05:11:50.661Z,15.2
2023-08-27T05:14:51.671Z,15.2
2023-08-27T05:17:52.694Z,15.3
2023-08-27T05:20:53.721Z,15.4
2023-08-27T05:23:54.732Z,15.5
2023-08-27T05:26:55.764Z,15.5
2023-08-27T05:28:40.809Z,15.5
2023-08-27T05:29:56.786Z,15.6
2023-08-27T05:32:57.819Z,15.6
2023-08-27T05:35:58.855Z,15.6
2023-08-27T05:38:59.849Z,15.7
2023-08-27T05:42:00.875Z,15.7
2023-08-27T05:45:01.904Z,15.8
2023-08-27T05:48:02.922Z,15.9
2023-08-27T05:54:04.977Z,16
2023-08-27T05:57:05.986Z,16
2023-08-27T05:58:51.051Z,16.2
2023-08-27T06:00:07.014Z,16.2
2023-08-27T06:03:08.064Z,16.2
2023-08-27T06:06:09.071Z,16.3
2023-08-27T06:09:10.084Z,16.4
2023-08-27T06:12:11.123Z,16.5
2023-08-27T06:15:12.129Z,16.6
2023-08-27T06:18:13.142Z,16.7
2023-08-27T06:21:14.193Z,16.8
2023-08-27T06:24:15.191Z,16.9
2023-08-27T06:29:01.287Z,17.1
2023-08-27T06:30:17.430Z,17.1
2023-08-27T06:33:18.436Z,17.2
2023-08-27T06:39:20.486Z,17.4
2023-08-27T06:42:21.488Z,17.4
2023-08-27T06:48:23.548Z,17.4
2023-08-27T06:51:24.574Z,17.4
2023-08-27T06:54:25.574Z,17.4
2023-08-27T06:57:26.618Z,17.5
2023-08-27T06:59:11.520Z,17.5
2023-08-27T07:00:27.645Z,17.6
2023-08-27T07:03:28.646Z,17.6
2023-08-27T07:06:29.711Z,17.7
2023-08-27T07:09:30.708Z,17.7
2023-08-27T07:12:31.719Z,17.7
2023-08-27T07:15:32.746Z,17.8
2023-08-27T07:18:33.753Z,17.8
2023-08-27T07:24:35.808Z,18
2023-08-27T07:27:36.829Z,18
2023-08-27T07:29:21.740Z,18
2023-08-27T07:33:38.884Z,18
2023-08-27T07:36:39.909Z,18
2023-08-27T07:42:41.951Z,18
2023-08-27T07:45:42.976Z,18
2023-08-27T07:51:45.007Z,18.1
2023-08-27T07:54:46.014Z,18.1
2023-08-27T07:59:31.967Z,18.1
2023-08-27T08:00:48.092Z,18.1
2023-08-27T08:03:49.105Z,18.1
2023-08-27T08:09:51.140Z,18.1
2023-08-27T08:12:52.159Z,18.2
2023-08-27T08:18:54.204Z,18.3
2023-08-27T08:21:55.230Z,18.4
2023-08-27T08:27:57.280Z,18.6
2023-08-27T08:29:42.243Z,18.7
2023-08-27T08:30:58.279Z,18.7
2023-08-27T08:37:00.340Z,18.8
2023-08-27T08:40:01.331Z,18.7
2023-08-27T08:43:02.370Z,18.8
2023-08-27T08:46:03.409Z,18.9
2023-08-27T08:49:04.412Z,18.9
2023-08-27T08:55:06.463Z,19
2023-08-27T08:58:07.489Z,19.1
2023-08-27T08:59:52.437Z,19.1
2023-08-27T09:04:09.544Z,19.1
2023-08-27T09:07:10.550Z,19
2023-08-27T09:10:11.549Z,19.2
2023-08-27T09:13:12.611Z,19.3
2023-08-27T09:16:13.602Z,19.5
2023-08-27T09:22:15.658Z,19.7
2023-08-27T09:25:16.679Z,19.8
2023-08-27T09:30:02.674Z,19.8
2023-08-27T09:31:18.730Z,19.8
2023-08-27T09:34:19.745Z,19.8
2023-08-27T09:37:20.751Z,19.9
2023-08-27T09:40:21.805Z,20
2023-08-27T09:43:22.806Z,20
2023-08-27T09:49:24.866Z,20
2023-08-27T09:52:25.857Z,19.9
2023-08-27T09:55:26.880Z,19.8
2023-08-27T09:58:27.926Z,19.8
2023-08-27T10:00:12.930Z,19.6
2023-08-27T10:01:28.950Z,19.6
2023-08-27T10:04:29.933Z,19.7
2023-08-27T10:07:30.987Z,19.9
2023-08-27T10:10:32.008Z,20.1
2023-08-27T10:13:33.038Z,20.3
2023-08-27T10:16:34.052Z,20.4
2023-08-27T10:19:35.083Z,20.8
2023-08-27T10:25:37.119Z,21.4
2023-08-27T10:28:38.128Z,21.6
2023-08-27T10:30:23.179Z,22
2023-08-27T10:34:40.187Z,22.1
2023-08-27T10:43:43.256Z,21.9
2023-08-27T10:46:44.265Z,21.9
2023-08-27T10:52:46.322Z,21.9
2023-08-27T10:55:47.332Z,21.9
2023-08-27T10:58:48.369Z,21.8
2023-08-27T11:00:33.414Z,21.8
2023-08-27T11:01:49.383Z,21.7
2023-08-27T11:04:50.418Z,21.7
2023-08-27T11:10:52.456Z,21.7
2023-08-27T11:13:53.451Z,21.8
2023-08-27T11:19:55.519Z,22.3
2023-08-27T11:22:56.534Z,22.6
2023-08-27T11:28:58.588Z,22.7
2023-08-27T11:30:43.660Z,22.8
2023-08-27T11:31:59.633Z,22.6
2023-08-27T11:35:00.623Z,22.4
2023-08-27T11:41:02.673Z,21.8
2023-08-27T11:47:04.747Z,21.9
2023-08-27T11:50:05.737Z,22.1
2023-08-27T11:56:07.810Z,22.7
2023-08-27T11:59:08.829Z,22.6
2023-08-27T12:00:53.890Z,22.4
2023-08-27T12:05:10.883Z,22.1
2023-08-27T12:08:11.873Z,21.8
2023-08-27T12:14:13.959Z,21.6
2023-08-27T12:17:14.975Z,21.2
2023-08-27T12:20:15.975Z,21
2023-08-27T12:23:17.025Z,20.8
2023-08-27T12:26:18.007Z,20.6
2023-08-27T12:29:19.062Z,20.4
2023-08-27T12:31:04.089Z,20.4
2023-08-27T12:32:20.275Z,20.3
2023-08-27T12:35:21.308Z,20.3
2023-08-27T12:44:24.334Z,20.2
2023-08-27T12:53:27.391Z,19.9
2023-08-27T12:56:28.426Z,19.7
2023-08-27T12:59:29.434Z,19.5
2023-08-27T13:01:14.356Z,19.3
2023-08-27T13:02:30.493Z,19.1
2023-08-27T13:08:32.534Z,18.9
2023-08-27T13:11:33.555Z,18.8
2023-08-27T13:20:36.616Z,18.7
2023-08-27T13:26:38.677Z,18.5
2023-08-27T13:29:39.684Z,18.5
2023-08-27T13:31:24.554Z,18.4
2023-08-27T13:32:40.688Z,18.4
2023-08-27T13:35:41.742Z,18.4
2023-08-27T13:38:42.767Z,18.3
2023-08-27T13:44:44.799Z,18.4
2023-08-27T13:47:45.831Z,18.5
2023-08-27T13:53:47.858Z,18.6
2023-08-27T13:56:48.889Z,18.6
2023-08-27T14:02:50.938Z,18.5
2023-08-27T14:05:51.946Z,18.4
2023-08-27T14:11:53.987Z,18.6
2023-08-27T14:14:54.973Z,18.8
2023-08-27T14:20:57.064Z,18.9
2023-08-27T14:23:58.090Z,18.9
2023-08-27T14:30:00.117Z,18.9
2023-08-27T14:31:45.065Z,19
2023-08-27T14:33:01.146Z,19.1
2023-08-27T14:39:03.192Z,19.1
2023-08-27T14:45:05.203Z,19
2023-08-27T14:48:06.257Z,19
2023-08-27T14:57:09.284Z,18.8
2023-08-27T15:00:10.299Z,18.8
2023-08-27T15:01:55.267Z,18.8
2023-08-27T15:06:12.396Z,18.8
2023-08-27T15:15:15.455Z,18.7
2023-08-27T15:18:16.435Z,18.8
2023-08-27T15:21:17.460Z,18.8
2023-08-27T15:24:18.516Z,18.8
2023-08-27T15:27:19.541Z,18.8
2023-08-27T15:32:05.492Z,18.8
2023-08-27T15:33:21.579Z,18.8
2023-08-27T15:36:22.598Z,18.8
2023-08-27T15:42:24.648Z,18.7
2023-08-27T15:45:25.672Z,18.7
2023-08-27T15:54:28.692Z,18.5
2023-08-27T15:57:29.729Z,18.4
2023-08-27T16:00:30.781Z,18.4
2023-08-27T16:02:15.770Z,18.4
2023-08-27T16:03:31.805Z,18.4
2023-08-27T16:12:34.834Z,18.3
2023-08-27T16:18:36.872Z,18.2
2023-08-27T16:21:37.928Z,18.2
2023-08-27T16:24:38.920Z,18.1
2023-08-27T16:27:39.984Z,18.1
2023-08-27T16:30:41.004Z,18.1
2023-08-27T16:32:25.964Z,18.1
2023-08-27T16:36:43.047Z,18.1
2023-08-27T16:42:45.095Z,18
2023-08-27T16:45:46.103Z,18
2023-08-27T16:48:47.128Z,18
2023-08-27T16:54:49.128Z,18
2023-08-27T16:57:50.190Z,18
2023-08-27T17:02:36.243Z,18
2023-08-27T17:03:52.233Z,18
2023-08-27T17:06:53.214Z,17.9
2023-08-27T17:12:55.299Z,17.9
2023-08-27T17:15:56.326Z,17.9
2023-08-27T17:18:57.312Z,17.8
2023-08-27T17:21:58.369Z,17.8
2023-08-27T17:24:59.387Z,17.7
2023-08-27T17:31:01.428Z,17.7
2023-08-27T17:32:46.484Z,17.6
2023-08-27T17:40:04.494Z,17.6
2023-08-27T17:43:05.530Z,17.6
2023-08-27T17:46:06.507Z,17.5
2023-08-27T17:58:10.633Z,17.5
2023-08-27T18:01:11.654Z,17.5
2023-08-27T18:02:56.715Z,17.4
2023-08-27T18:07:13.724Z,17.4
2023-08-27T18:10:14.698Z,17.3
2023-08-27T18:13:15.712Z,17.3
2023-08-27T18:16:16.732Z,17.3
2023-08-27T18:19:17.751Z,17.3
2023-08-27T18:22:18.771Z,17.3
2023-08-27T18:25:19.849Z,17.3
2023-08-27T18:28:20.832Z,17.3
2023-08-27T18:33:06.909Z,17.3
2023-08-27T18:37:24.003Z,17.2
2023-08-27T18:43:26.047Z,17.1
2023-08-27T18:46:27.076Z,17
2023-08-27T18:49:28.039Z,17
2023-08-27T18:52:29.109Z,16.9
2023-08-27T18:55:30.137Z,16.8
2023-08-27T18:58:31.118Z,16.7
2023-08-27T19:01:32.178Z,16.6
2023-08-27T19:03:17.144Z,16.6
2023-08-27T19:04:33.182Z,16.5
2023-08-27T19:07:34.208Z,16.5
2023-08-27T19:10:35.276Z,16.4
2023-08-27T19:13:36.297Z,16.3
2023-08-27T19:19:38.331Z,16.2
2023-08-27T19:22:39.351Z,16.2
2023-08-27T19:28:41.401Z,16.2
2023-08-27T19:31:42.415Z,16.2
2023-08-27T19:33:27.427Z,16.3
2023-08-27T19:37:44.489Z,16.3
2023-08-27T19:40:45.460Z,16.2
2023-08-27T19:46:47.548Z,16.2
2023-08-27T19:49:48.524Z,16.2
2023-08-27T19:55:50.621Z,16.1
2023-08-27T19:58:51.630Z,16.1
2023-08-27T20:03:37.674Z,16
2023-08-27T20:04:53.699Z,16
2023-08-27T20:07:54.662Z,16
2023-08-27T20:10:55.700Z,16
2023-08-27T20:13:56.712Z,16
2023-08-27T20:16:57.730Z,15.9
2023-08-27T20:22:59.771Z,15.9
2023-08-27T20:26:00.850Z,15.9
2023-08-27T20:32:02.895Z,15.8
2023-08-27T20:33:47.892Z,15.8
2023-08-27T20:35:03.926Z,15.8
2023-08-27T20:38:04.897Z,15.7
2023-08-27T20:41:05.938Z,15.8
2023-08-27T20:44:07.004Z,15.7
2023-08-27T20:47:08.019Z,15.7
2023-08-27T20:50:09.034Z,15.7
2023-08-27T20:53:10.053Z,15.7
2023-08-27T20:59:12.114Z,15.6
2023-08-27T21:02:13.124Z,15.6
2023-08-27T21:03:58.092Z,15.6
2023-08-27T21:08:15.197Z,15.6
2023-08-27T21:11:16.216Z,15.6
2023-08-27T21:14:17.172Z,15.6
2023-08-27T21:17:18.247Z,15.6
2023-08-27T21:20:19.229Z,15.5
2023-08-27T21:26:21.266Z,15.5
2023-08-27T21:29:22.340Z,15.4
2023-08-27T21:32:23.307Z,15.4
2023-08-27T21:34:08.318Z,15.4
2023-08-27T21:35:24.392Z,15.4
2023-08-27T21:38:25.417Z,15.4
2023-08-27T21:44:27.406Z,15.4
2023-08-27T21:47:28.482Z,15.3
2023-08-27T21:50:29.462Z,15.3
2023-08-27T21:53:30.531Z,15.3
2023-08-27T21:56:31.504Z,15.3
2023-08-27T21:59:32.515Z,15.3
2023-08-27T22:02:33.538Z,15.3
2023-08-27T22:04:18.557Z,15.3
2023-08-27T22:05:34.581Z,15.3
2023-08-27T22:08:35.604Z,15.3
2023-08-27T22:11:36.670Z,15.2
2023-08-27T22:14:37.692Z,15.2
2023-08-27T22:17:38.667Z,15.2
2023-08-27T22:20:39.732Z,15.2
2023-08-27T22:23:40.884Z,15.2
2023-08-27T22:26:58.111Z,15.2
2023-08-27T22:29:59.180Z,15.2
2023-08-27T22:33:00.157Z,15.2
2023-08-27T22:34:28.826Z,15.1
2023-08-27T22:36:01.171Z,15.2
2023-08-27T22:39:02.203Z,15.1
2023-08-27T22:42:03.223Z,15.1
2023-08-27T22:48:05.311Z,15.1
2023-08-27T22:51:06.332Z,15.1
2023-08-27T22:57:08.373Z,15.1
2023-08-27T23:00:09.360Z,15.1
2023-08-27T23:03:10.391Z,15.1
2023-08-27T23:04:39.025Z,15.1
2023-08-27T23:06:11.412Z,15.1
2023-08-27T23:09:12.417Z,15
2023-08-27T23:15:14.515Z,14.9
2023-08-27T23:18:15.526Z,14.9
2023-08-27T23:21:16.505Z,14.8
2023-08-27T23:24:17.577Z,14.8
2023-08-27T23:27:18.556Z,14.7
2023-08-27T23:30:19.570Z,14.6
2023-08-27T23:33:20.640Z,14.6
2023-08-27T23:34:49.300Z,14.5
2023-08-27T23:36:21.664Z,14.5
2023-08-27T23:42:23.659Z,14.4
2023-08-27T23:45:24.683Z,14.4
2023-08-27T23:51:26.768Z,14.2
2023-08-27T23:54:27.798Z,14.2
